Time;durP1;ratioP1;P1;durP2;ratioP2;P2;SDS_P1;SDS_P2;PMS_P1;PMS_P2;Temp;Humidity;BMP_temperature;BMP_pressure;BME280_temperature;BME280_humidity;BME280_pressure;Samples;Min_cycle;Max_cycle;Signal;HPM_P1;HPM_P2
2021/01/02 00:01:35;;;;;;;13.40;10.17;;;3.20;99.90;;;;;;6276649;28;20475;-61
2021/01/02 00:05:03;;;;;;;13.03;10.47;;;3.30;99.90;;;;;;6276932;28;20556;-61
2021/01/02 00:08:15;;;;;;;13.20;10.80;;;3.20;99.90;;;;;;6275265;28;20473;-61
2021/01/02 00:11:36;;;;;;;11.80;9.47;;;3.20;99.90;;;;;;6272698;28;20511;-61
2021/01/02 00:14:58;;;;;;;14.23;11.13;;;3.20;99.90;;;;;;6270306;28;20470;-61
2021/01/02 00:18:11;;;;;;;15.30;10.00;;;3.20;99.90;;;;;;6271174;28;20603;-61
2021/01/02 00:21:22;;;;;;;12.33;10.13;;;3.30;99.90;;;;;;6273693;28;20482;-61
2021/01/02 00:24:36;;;;;;;14.93;10.13;;;3.30;99.90;;;;;;6275470;28;20458;-62
2021/01/02 00:28:01;;;;;;;12.17;9.77;;;3.30;99.90;;;;;;6275034;28;20455;-62
2021/01/02 00:31:43;;;;;;;14.23;10.07;;;3.20;99.90;;;;;;6295620;28;20953;-62
2021/01/02 00:35:03;;;;;;;13.40;9.30;;;3.20;99.90;;;;;;6295419;28;20476;-62
2021/01/02 00:38:06;;;;;;;13.20;9.90;;;3.20;99.90;;;;;;6300027;28;20474;-62
2021/01/02 00:41:12;;;;;;;13.93;10.90;;;3.30;99.90;;;;;;6300563;28;20484;-62
2021/01/02 00:44:16;;;;;;;12.70;9.40;;;3.30;99.90;;;;;;6300685;28;20468;-62
2021/01/02 00:47:19;;;;;;;11.10;10.00;;;3.30;99.90;;;;;;6300605;28;20575;-62
2021/01/02 00:50:23;;;;;;;10.50;8.50;;;3.40;99.90;;;;;;6300803;28;20512;-62
2021/01/02 00:54:02;;;;;;;13.97;9.03;;;3.50;99.90;;;;;;6300460;28;20980;-62
2021/01/02 00:57:11;;;;;;;11.87;8.67;;;3.50;99.90;;;;;;6300533;28;20481;-62
2021/01/02 01:00:16;;;;;;;10.80;9.70;;;3.60;99.90;;;;;;6300317;28;20469;-62
2021/01/02 01:03:26;;;;;;;10.90;8.93;;;3.60;99.90;;;;;;6300601;28;20472;-63
2021/01/02 01:06:30;;;;;;;10.70;8.97;;;3.70;99.90;;;;;;6300626;28;20506;-62
2021/01/02 01:09:37;;;;;;;12.43;9.23;;;3.70;99.90;;;;;;6300007;28;20485;-62
2021/01/02 01:12:43;;;;;;;13.03;10.57;;;3.70;99.90;;;;;;6299787;28;20496;-62
2021/01/02 01:15:47;;;;;;;15.80;11.60;;;3.70;99.90;;;;;;6299991;28;20493;-62
2021/01/02 01:18:58;;;;;;;10.53;9.43;;;3.70;99.90;;;;;;6300455;28;20469;-65
2021/01/02 01:22:06;;;;;;;11.57;9.23;;;3.60;99.90;;;;;;6299727;28;20480;-62
2021/01/02 01:25:20;;;;;;;12.00;9.33;;;3.60;99.90;;;;;;6300606;28;20453;-62
2021/01/02 01:28:26;;;;;;;11.53;9.70;;;3.60;99.90;;;;;;6299962;28;20454;-63
2021/01/02 01:31:45;;;;;;;12.50;10.23;;;3.70;99.90;;;;;;6300027;28;20472;-63
2021/01/02 01:34:48;;;;;;;11.70;10.40;;;3.70;99.90;;;;;;6300037;28;20480;-63
2021/01/02 01:37:57;;;;;;;10.67;9.60;;;3.70;99.90;;;;;;6299993;28;20484;-62
2021/01/02 01:41:11;;;;;;;12.77;8.80;;;3.70;99.90;;;;;;6299690;28;20469;-63
2021/01/02 01:44:48;;;;;;;12.13;8.73;;;3.70;99.90;;;;;;6299738;28;20469;-63
2021/01/02 01:48:04;;;;;;;10.50;7.70;;;3.70;99.90;;;;;;6299663;28;20462;-63
2021/01/02 01:51:29;;;;;;;12.27;7.80;;;3.80;99.90;;;;;;6299429;28;20474;-63
2021/01/02 01:55:00;;;;;;;11.80;9.30;;;3.70;99.90;;;;;;6299919;28;20485;-62
2021/01/02 01:58:11;;;;;;;11.90;10.00;;;3.60;99.90;;;;;;6299593;28;20473;-62
2021/01/02 02:01:20;;;;;;;10.33;9.20;;;3.60;99.90;;;;;;6299813;28;20464;-62
2021/01/02 02:04:59;;;;;;;9.13;8.23;;;3.50;99.90;;;;;;6299480;28;20870;-62
2021/01/02 02:08:04;;;;;;;10.70;7.90;;;3.50;99.90;;;;;;6298383;28;20457;-62
2021/01/02 02:11:13;;;;;;;11.70;7.90;;;3.40;99.90;;;;;;6299302;28;20485;-62
2021/01/02 02:14:25;;;;;;;9.50;8.57;;;3.40;99.90;;;;;;6299061;28;20474;-62
2021/01/02 02:17:34;;;;;;;11.20;8.43;;;3.40;99.90;;;;;;6299301;28;20978;-62
2021/01/02 02:20:45;;;;;;;11.70;9.07;;;3.40;99.90;;;;;;6299974;28;20480;-62
2021/01/02 02:23:51;;;;;;;7.97;7.17;;;3.40;99.90;;;;;;6299618;28;20470;-62
2021/01/02 02:26:56;;;;;;;10.87;7.57;;;3.40;99.90;;;;;;6299261;28;20493;-62
2021/01/02 02:30:12;;;;;;;9.47;8.17;;;3.40;99.90;;;;;;6298856;28;20983;-62
2021/01/02 02:33:18;;;;;;;9.37;7.93;;;3.40;99.90;;;;;;6301436;28;20473;-62
2021/01/02 02:36:21;;;;;;;8.90;6.90;;;3.40;99.90;;;;;;6303963;28;20468;-62
2021/01/02 02:39:24;;;;;;;9.70;7.40;;;3.40;99.90;;;;;;6304465;28;20461;-62
2021/01/02 02:42:31;;;;;;;9.40;8.47;;;3.30;99.90;;;;;;6303653;28;20818;-62
2021/01/02 02:45:34;;;;;;;9.50;7.33;;;3.30;99.90;;;;;;6303861;28;20964;-62
2021/01/02 02:48:37;;;;;;;10.60;7.80;;;3.30;99.90;;;;;;6303746;28;20476;-62
2021/01/02 02:52:00;;;;;;;9.70;8.03;;;3.30;99.90;;;;;;6303690;28;20469;-62
2021/01/02 02:55:03;;;;;;;9.70;7.63;;;3.30;99.90;;;;;;6303793;28;20465;-62
2021/01/02 02:58:06;;;;;;;11.93;7.67;;;3.30;99.90;;;;;;6302881;28;20453;-62
2021/01/02 03:01:08;;;;;;;11.03;7.40;;;3.50;99.90;;;;;;6303078;28;20949;-62
2021/01/02 03:04:11;;;;;;;10.80;8.23;;;3.60;99.90;;;;;;6303510;28;20437;-62
2021/01/02 03:07:15;;;;;;;11.47;7.90;;;3.70;99.90;;;;;;6303369;28;20451;-62
2021/01/02 03:10:19;;;;;;;10.20;7.97;;;3.70;99.90;;;;;;6303121;28;20480;-62
2021/01/02 03:13:23;;;;;;;8.50;7.33;;;3.80;99.90;;;;;;6302952;28;20949;-62
2021/01/02 03:16:25;;;;;;;9.50;7.43;;;3.80;99.90;;;;;;6303294;28;20454;-62
2021/01/02 03:19:29;;;;;;;11.23;7.27;;;3.80;99.90;;;;;;6303544;28;20458;-62
2021/01/02 03:22:35;;;;;;;8.93;7.50;;;3.80;99.90;;;;;;6303149;28;20465;-62
2021/01/02 03:25:37;;;;;;;10.13;9.00;;;3.70;99.90;;;;;;6303058;28;20469;-62
2021/01/02 03:28:39;;;;;;;11.40;9.10;;;3.80;99.90;;;;;;6302266;28;20796;-62
2021/01/02 03:31:41;;;;;;;11.07;9.97;;;3.80;99.90;;;;;;6302589;28;20461;-62
2021/01/02 03:34:44;;;;;;;10.97;9.83;;;3.90;99.90;;;;;;6302914;28;20469;-62
2021/01/02 03:37:48;;;;;;;9.10;8.20;;;3.90;99.90;;;;;;6302796;28;20476;-62
2021/01/02 03:40:50;;;;;;;9.43;7.10;;;3.90;99.90;;;;;;6302725;28;20470;-62
2021/01/02 03:43:53;;;;;;;9.17;6.60;;;3.90;99.90;;;;;;6293124;28;20983;-62
2021/01/02 03:46:58;;;;;;;14.73;8.43;;;3.90;99.90;;;;;;6302768;28;20469;-62
2021/01/02 03:50:00;;;;;;;9.20;7.73;;;3.80;99.90;;;;;;6302298;28;20519;-62
2021/01/02 03:53:06;;;;;;;9.80;8.00;;;3.80;99.90;;;;;;6302011;28;20473;-62
2021/01/02 03:56:10;;;;;;;9.50;7.70;;;3.80;99.90;;;;;;6302221;28;20477;-61
2021/01/02 03:59:12;;;;;;;9.60;7.33;;;3.70;99.90;;;;;;6302043;28;20476;-62
2021/01/02 04:02:15;;;;;;;9.77;7.27;;;3.70;99.90;;;;;;6301969;28;20477;-61
2021/01/02 04:05:17;;;;;;;9.03;6.23;;;3.60;99.90;;;;;;6302029;28;20473;-61
2021/01/02 04:08:20;;;;;;;8.20;6.93;;;3.50;99.90;;;;;;6302063;28;20547;-61
2021/01/02 04:11:23;;;;;;;11.53;6.70;;;3.60;99.90;;;;;;6301447;28;20469;-61
2021/01/02 04:14:27;;;;;;;8.53;7.53;;;3.50;99.90;;;;;;6300662;28;20582;-62
2021/01/02 04:17:29;;;;;;;11.10;6.20;;;3.40;99.90;;;;;;6301898;28;20473;-62
2021/01/02 04:20:32;;;;;;;9.60;7.30;;;3.40;99.90;;;;;;6301545;28;20507;-62
2021/01/02 04:23:35;;;;;;;10.37;7.20;;;3.40;99.90;;;;;;6301884;28;20495;-62
2021/01/02 04:26:39;;;;;;;9.50;7.03;;;3.40;99.90;;;;;;6301409;28;20473;-62
2021/01/02 04:29:41;;;;;;;8.00;6.50;;;3.30;99.90;;;;;;6301102;28;20485;-62
2021/01/02 04:32:47;;;;;;;9.10;6.50;;;3.30;99.90;;;;;;6300382;28;20564;-62
2021/01/02 04:35:50;;;;;;;9.53;6.37;;;3.30;99.90;;;;;;6300098;28;20824;-62
2021/01/02 04:38:53;;;;;;;10.40;7.40;;;3.30;99.90;;;;;;6300173;28;20473;-62
2021/01/02 04:41:56;;;;;;;9.60;7.17;;;3.30;99.90;;;;;;6299987;28;20510;-62
2021/01/02 04:45:02;;;;;;;11.73;7.70;;;3.40;99.90;;;;;;6299904;28;20989;-62
2021/01/02 04:48:06;;;;;;;9.40;8.33;;;3.50;99.90;;;;;;6290437;28;20465;-62
2021/01/02 04:51:08;;;;;;;13.27;8.00;;;3.60;99.90;;;;;;6300006;28;20819;-62
2021/01/02 04:54:14;;;;;;;11.70;8.60;;;3.50;99.90;;;;;;6300907;28;20925;-62
2021/01/02 04:57:16;;;;;;;9.70;7.33;;;3.60;99.90;;;;;;6300169;28;20657;-62
2021/01/02 05:00:21;;;;;;;7.87;7.07;;;3.70;99.90;;;;;;6300617;28;20466;-62
2021/01/02 05:03:24;;;;;;;10.27;7.93;;;3.70;99.90;;;;;;6301051;28;20466;-62
2021/01/02 05:06:26;;;;;;;8.27;7.37;;;3.70;99.90;;;;;;6301009;28;20477;-62
2021/01/02 05:09:29;;;;;;;8.77;6.80;;;3.80;99.90;;;;;;6300268;28;20473;-62
2021/01/02 05:12:33;;;;;;;8.23;7.10;;;3.80;99.90;;;;;;6299906;28;20486;-61
2021/01/02 05:15:36;;;;;;;10.40;7.80;;;3.80;99.90;;;;;;6300018;28;20885;-61
2021/01/02 05:18:55;;;;;;;11.57;7.40;;;3.80;99.90;;;;;;6300074;28;20805;-62
2021/01/02 05:21:57;;;;;;;8.33;6.97;;;3.80;99.90;;;;;;6299876;28;20803;-62
2021/01/02 05:25:13;;;;;;;9.17;7.13;;;3.80;99.90;;;;;;6300307;28;20465;-62
2021/01/02 05:28:18;;;;;;;7.40;6.70;;;3.70;99.90;;;;;;6274957;28;20782;-61
2021/01/02 05:31:27;;;;;;;8.50;6.60;;;3.80;99.90;;;;;;6275092;28;20482;-62
2021/01/02 05:34:31;;;;;;;9.80;8.33;;;3.70;99.90;;;;;;6275350;28;20578;-61
2021/01/02 05:37:33;;;;;;;10.67;8.07;;;3.70;99.90;;;;;;6275299;28;20541;-62
2021/01/02 05:40:39;;;;;;;9.17;7.80;;;3.70;99.90;;;;;;6275083;28;20497;-62
2021/01/02 05:43:42;;;;;;;13.67;9.90;;;3.70;99.90;;;;;;6274720;28;20470;-62
2021/01/02 05:46:46;;;;;;;14.40;9.63;;;3.70;99.90;;;;;;6275046;28;20462;-62
2021/01/02 05:49:49;;;;;;;15.63;11.20;;;3.70;99.90;;;;;;6269981;28;20474;-61
2021/01/02 05:52:52;;;;;;;22.23;13.30;;;3.70;99.90;;;;;;6274944;28;20515;-61
2021/01/02 05:56:00;;;;;;;12.37;10.13;;;3.70;99.90;;;;;;6275168;28;20516;-62
2021/01/02 05:59:02;;;;;;;15.33;11.40;;;3.60;99.90;;;;;;6274805;28;20473;-62
2021/01/02 06:02:24;;;;;;;16.33;12.50;;;3.60;99.90;;;;;;6275089;28;20482;-61
2021/01/02 06:05:29;;;;;;;16.73;13.33;;;3.70;99.90;;;;;;6274909;28;20550;-62
2021/01/02 06:08:39;;;;;;;16.23;12.37;;;3.60;99.90;;;;;;6277533;28;20474;-62
2021/01/02 06:11:49;;;;;;;14.93;13.27;;;3.60;99.90;;;;;;6279678;28;20635;-62
2021/01/02 06:14:52;;;;;;;14.60;12.60;;;3.50;99.90;;;;;;6279506;28;20821;-62
2021/01/02 06:18:03;;;;;;;17.03;12.73;;;3.50;99.90;;;;;;6279458;28;20474;-61
2021/01/02 06:21:07;;;;;;;14.47;11.80;;;3.50;99.90;;;;;;6279077;28;20969;-61
2021/01/02 06:24:10;;;;;;;17.20;14.97;;;3.50;99.90;;;;;;6279523;28;20470;-62
2021/01/02 06:27:13;;;;;;;17.53;12.87;;;3.60;99.90;;;;;;6279514;28;20470;-62
2021/01/02 06:30:17;;;;;;;16.83;14.07;;;3.60;99.90;;;;;;6279313;28;20482;-61
2021/01/02 06:33:19;;;;;;;17.17;11.83;;;3.70;99.90;;;;;;6279510;28;20474;-62
2021/01/02 06:36:29;;;;;;;16.30;12.67;;;3.70;99.90;;;;;;6279122;28;20480;-62
2021/01/02 06:39:32;;;;;;;14.77;12.10;;;3.70;99.90;;;;;;6279041;28;20481;-62
2021/01/02 06:42:35;;;;;;;14.40;12.90;;;3.70;99.90;;;;;;6279053;28;20813;-62
2021/01/02 06:45:59;;;;;;;19.60;14.10;;;3.80;99.90;;;;;;6278941;28;20478;-62
2021/01/02 06:49:32;;;;;;;15.37;13.13;;;3.80;99.90;;;;;;6276356;28;20470;-62
2021/01/02 06:52:35;;;;;;;16.00;13.33;;;3.80;99.90;;;;;;6278875;28;20470;-61
2021/01/02 06:55:37;;;;;;;19.83;12.60;;;3.80;99.90;;;;;;6274010;28;20462;-62
2021/01/02 06:58:43;;;;;;;17.20;14.50;;;3.90;99.90;;;;;;6278436;28;20810;-62
2021/01/02 07:01:46;;;;;;;17.87;13.63;;;3.90;99.90;;;;;;6278463;28;20474;-62
2021/01/02 07:04:48;;;;;;;17.80;14.33;;;3.90;99.90;;;;;;6278371;28;20810;-62
2021/01/02 07:07:50;;;;;;;13.77;11.67;;;3.90;99.90;;;;;;6278499;28;20799;-62
2021/01/02 07:11:27;;;;;;;14.63;12.63;;;3.90;99.90;;;;;;6278232;28;20484;-62
2021/01/02 07:14:30;;;;;;;16.80;13.27;;;3.90;99.90;;;;;;6278112;28;20474;-62
2021/01/02 07:17:32;;;;;;;16.70;12.97;;;3.90;99.90;;;;;;6278116;28;20819;-62
2021/01/02 07:20:37;;;;;;;12.53;10.57;;;4.00;99.90;;;;;;6277530;28;20475;-62
2021/01/02 07:23:39;;;;;;;10.13;9.13;;;4.00;99.90;;;;;;6278545;28;20471;-61
2021/01/02 07:26:42;;;;;;;8.00;7.00;;;4.10;99.90;;;;;;6278126;28;20470;-62
2021/01/02 07:29:46;;;;;;;8.63;6.90;;;4.20;99.90;;;;;;6277424;28;20497;-62
2021/01/02 07:32:48;;;;;;;8.47;7.43;;;4.20;99.90;;;;;;6277709;28;20805;-62
2021/01/02 07:35:50;;;;;;;9.50;6.90;;;4.20;99.90;;;;;;6277782;28;20470;-62
2021/01/02 07:38:52;;;;;;;8.27;7.40;;;4.30;99.90;;;;;;6277511;28;20465;-62
2021/01/02 07:41:55;;;;;;;8.77;6.40;;;4.40;99.90;;;;;;6277731;28;20984;-62
2021/01/02 07:45:01;;;;;;;8.47;6.67;;;4.40;99.90;;;;;;6277305;28;20466;-61
2021/01/02 07:48:04;;;;;;;10.33;8.03;;;4.50;99.90;;;;;;6277618;28;20481;-62
2021/01/02 07:51:17;;;;;;;8.47;7.60;;;4.50;99.90;;;;;;6277417;28;20482;-62
2021/01/02 07:54:32;;;;;;;8.80;7.90;;;4.60;99.90;;;;;;6277454;28;20481;-62
2021/01/02 07:57:34;;;;;;;7.37;6.63;;;4.60;99.90;;;;;;6276930;28;20470;-62
2021/01/02 08:00:40;;;;;;;11.87;8.20;;;4.70;99.90;;;;;;6277071;28;20489;-62
2021/01/02 08:03:42;;;;;;;8.40;7.40;;;4.70;99.90;;;;;;6277022;28;20471;-62
2021/01/02 08:06:46;;;;;;;7.97;7.17;;;4.70;99.90;;;;;;6277880;28;20962;-62
2021/01/02 08:09:49;;;;;;;9.43;7.80;;;4.70;99.90;;;;;;6276750;28;20571;-62
2021/01/02 08:12:56;;;;;;;9.20;8.20;;;4.80;99.90;;;;;;6276647;28;20486;-62
2021/01/02 08:16:02;;;;;;;10.40;8.87;;;4.80;99.90;;;;;;6277170;28;20986;-62
2021/01/02 08:19:04;;;;;;;14.73;11.60;;;4.80;99.90;;;;;;6276448;28;20808;-62
2021/01/02 08:22:09;;;;;;;15.37;12.07;;;4.70;99.90;;;;;;6276608;28;20462;-61
2021/01/02 08:25:15;;;;;;;16.83;14.53;;;4.70;99.90;;;;;;6277139;28;20439;-61
2021/01/02 08:28:17;;;;;;;18.27;14.67;;;4.70;99.90;;;;;;6276329;28;20937;-61
2021/01/02 08:31:23;;;;;;;16.80;14.10;;;4.80;99.90;;;;;;6275334;28;20596;-61
2021/01/02 08:34:31;;;;;;;20.47;13.57;;;4.90;99.90;;;;;;6276736;28;20423;-62
2021/01/02 08:37:33;;;;;;;22.50;16.90;;;5.00;99.90;;;;;;6276599;28;20485;-59
2021/01/02 08:40:36;;;;;;;22.10;17.30;;;5.00;99.90;;;;;;6276257;28;20521;-59
2021/01/02 08:43:39;;;;;;;24.70;19.50;;;4.90;99.90;;;;;;6276306;28;20462;-59
2021/01/02 08:46:46;;;;;;;32.10;22.70;;;4.90;99.90;;;;;;6276247;28;20472;-60
2021/01/02 08:49:48;;;;;;;29.27;23.67;;;4.90;99.90;;;;;;6276263;28;20497;-59
2021/01/02 08:52:50;;;;;;;23.97;20.73;;;4.90;99.90;;;;;;6276137;28;20485;-61
2021/01/02 08:55:53;;;;;;;31.13;22.90;;;4.90;99.90;;;;;;6276287;28;20470;-61
2021/01/02 08:58:57;;;;;;;25.70;20.40;;;5.00;99.90;;;;;;6275455;28;20470;-62
2021/01/02 09:02:16;;;;;;;25.93;20.57;;;5.00;99.90;;;;;;6275790;28;20619;-62
2021/01/02 09:05:27;;;;;;;23.80;20.00;;;5.10;99.90;;;;;;6266711;28;20478;-65
2021/01/02 09:08:29;;;;;;;22.43;17.63;;;5.20;99.90;;;;;;6275706;28;20817;-62
2021/01/02 09:11:46;;;;;;;19.50;14.73;;;5.30;99.90;;;;;;6275499;28;20462;-59
2021/01/02 09:14:50;;;;;;;14.43;12.30;;;5.50;99.90;;;;;;6275313;28;20475;-59
2021/01/02 09:17:54;;;;;;;10.00;8.40;;;5.70;99.90;;;;;;6275128;28;20462;-59
2021/01/02 09:20:57;;;;;;;14.10;11.90;;;5.80;99.90;;;;;;6275141;28;20959;-59
2021/01/02 09:24:00;;;;;;;20.40;17.37;;;5.90;99.90;;;;;;6275397;28;20473;-61
2021/01/02 09:27:02;;;;;;;21.33;15.77;;;5.90;99.90;;;;;;6274937;28;20470;-62
2021/01/02 09:30:06;;;;;;;24.77;20.70;;;5.90;99.90;;;;;;6274989;28;20526;-62
2021/01/02 09:33:09;;;;;;;31.80;22.87;;;5.90;99.90;;;;;;6275077;28;20480;-62
2021/01/02 09:36:13;;;;;;;26.07;20.73;;;5.90;99.90;;;;;;6274234;28;20477;-61
2021/01/02 09:39:22;;;;;;;30.50;21.60;;;5.90;99.90;;;;;;6272130;28;20470;-62
2021/01/02 09:42:25;;;;;;;26.50;20.20;;;6.00;99.90;;;;;;6274624;28;20974;-61
2021/01/02 09:45:28;;;;;;;26.07;20.03;;;6.00;99.90;;;;;;6263829;28;20492;-63
2021/01/02 09:48:31;;;;;;;29.87;23.60;;;6.10;99.90;;;;;;6256788;28;20795;-65
2021/01/02 09:51:33;;;;;;;26.10;22.33;;;6.10;99.90;;;;;;6274594;28;20482;-62
2021/01/02 09:54:35;;;;;;;25.77;20.47;;;6.20;99.90;;;;;;6256466;28;20467;-62
2021/01/02 09:57:38;;;;;;;25.43;20.13;;;6.30;99.90;;;;;;6249800;28;20470;-62
2021/01/02 10:00:41;;;;;;;25.87;21.60;;;6.40;99.90;;;;;;6249920;28;20554;-61
2021/01/02 10:03:44;;;;;;;28.57;21.87;;;6.60;99.90;;;;;;6273096;28;20467;-62
2021/01/02 10:06:46;;;;;;;25.20;20.63;;;7.00;99.90;;;;;;6274530;28;20478;-61
2021/01/02 10:09:48;;;;;;;24.60;21.40;;;7.20;99.90;;;;;;6263980;28;20485;-62
2021/01/02 10:12:51;;;;;;;22.33;18.63;;;7.50;99.90;;;;;;6272283;28;20961;-61
2021/01/02 10:15:54;;;;;;;25.33;21.27;;;7.70;99.90;;;;;;6272563;28;20504;-61
2021/01/02 10:18:56;;;;;;;22.70;19.70;;;8.00;99.90;;;;;;6264419;28;20967;-61
2021/01/02 10:21:59;;;;;;;26.57;19.90;;;8.10;99.90;;;;;;6248491;28;20475;-61
2021/01/02 10:25:01;;;;;;;22.03;19.70;;;8.20;99.90;;;;;;6249025;28;20471;-62
2021/01/02 10:28:05;;;;;;;23.17;19.60;;;8.30;99.90;;;;;;6249266;28;20475;-61
2021/01/02 10:31:07;;;;;;;28.53;20.57;;;8.30;99.90;;;;;;6249296;28;20490;-61
2021/01/02 10:34:09;;;;;;;22.53;19.07;;;8.30;99.90;;;;;;6273860;28;20464;-62
2021/01/02 10:37:11;;;;;;;24.07;18.33;;;8.30;99.90;;;;;;6249614;28;20478;-61
2021/01/02 10:40:15;;;;;;;20.33;18.13;;;8.30;99.90;;;;;;6249484;28;20455;-63
2021/01/02 10:43:18;;;;;;;20.93;18.73;;;8.30;99.90;;;;;;6249433;28;20447;-60
2021/01/02 10:46:23;;;;;;;22.40;18.13;;;8.20;99.90;;;;;;6265643;28;20453;-61
2021/01/02 10:49:26;;;;;;;19.60;17.50;;;8.20;99.90;;;;;;6274297;28;20460;-61
2021/01/02 10:52:30;;;;;;;18.53;16.70;;;8.10;99.90;;;;;;6273879;28;20466;-61
2021/01/02 10:55:32;;;;;;;20.27;18.03;;;8.00;99.90;;;;;;6278186;28;20476;-60
2021/01/02 10:58:36;;;;;;;18.00;13.50;;;8.00;99.90;;;;;;6278538;28;20474;-61
2021/01/02 11:01:42;;;;;;;12.80;11.30;;;8.00;99.90;;;;;;6278682;28;20458;-61
2021/01/02 11:04:44;;;;;;;29.13;23.67;;;7.90;99.90;;;;;;6278660;28;20462;-62
2021/01/02 11:07:46;;;;;;;24.50;21.80;;;7.80;99.90;;;;;;6278690;28;20473;-60
2021/01/02 11:10:49;;;;;;;20.90;18.60;;;7.70;99.90;;;;;;6278135;28;20485;-60
2021/01/02 11:13:54;;;;;;;37.23;18.27;;;7.70;99.90;;;;;;6277995;28;20527;-60
2021/01/02 11:16:56;;;;;;;21.00;17.80;;;7.60;99.90;;;;;;6278526;28;20476;-63
2021/01/02 11:19:59;;;;;;;21.37;16.90;;;7.60;99.90;;;;;;6265857;28;20482;-61
2021/01/02 11:23:01;;;;;;;19.07;17.17;;;7.70;99.90;;;;;;6253452;28;20483;-61
2021/01/02 11:26:08;;;;;;;23.23;17.30;;;7.90;99.90;;;;;;6253067;28;20478;-60
2021/01/02 11:29:11;;;;;;;19.67;17.57;;;8.00;99.90;;;;;;6253298;28;20482;-60
2021/01/02 11:32:14;;;;;;;23.27;19.50;;;7.90;99.90;;;;;;6252654;28;20487;-60
2021/01/02 11:35:19;;;;;;;22.77;20.30;;;7.60;99.90;;;;;;6253250;28;20467;-61
2021/01/02 11:38:21;;;;;;;23.50;19.90;;;7.50;99.90;;;;;;6252988;28;20520;-61
2021/01/02 11:41:32;;;;;;;28.23;20.90;;;7.40;99.90;;;;;;6253387;28;20482;-60
2021/01/02 11:44:36;;;;;;;23.33;19.87;;;7.30;99.90;;;;;;6254879;28;20467;-60
2021/01/02 11:47:38;;;;;;;26.23;20.53;;;7.30;99.90;;;;;;6252815;28;20486;-59
2021/01/02 11:50:40;;;;;;;22.33;19.97;;;7.20;99.90;;;;;;6252648;28;20490;-60
2021/01/02 11:53:43;;;;;;;21.67;18.43;;;7.20;99.90;;;;;;6265933;28;20498;-59
2021/01/02 11:56:46;;;;;;;23.47;21.03;;;7.10;99.90;;;;;;6276867;28;20470;-59
2021/01/02 11:59:49;;;;;;;23.20;18.73;;;7.10;99.90;;;;;;6277295;28;20482;-60
2021/01/02 12:02:51;;;;;;;21.57;18.97;;;7.00;99.90;;;;;;6276841;28;20478;-61
2021/01/02 12:05:54;;;;;;;29.63;23.00;;;7.00;99.90;;;;;;6275742;28;20462;-62
2021/01/02 12:08:56;;;;;;;28.40;21.20;;;7.00;99.90;;;;;;6273350;28;20502;-62
2021/01/02 12:11:59;;;;;;;25.97;21.67;;;7.00;99.90;;;;;;6273276;28;20557;-62
2021/01/02 12:15:02;;;;;;;39.80;35.03;;;7.00;99.90;;;;;;6274489;28;20484;-62
2021/01/02 12:18:05;;;;;;;37.43;33.07;;;7.00;99.90;;;;;;6267522;28;20479;-63
2021/01/02 12:21:07;;;;;;;35.10;31.40;;;6.90;99.90;;;;;;6276542;28;20478;-62
2021/01/02 12:24:10;;;;;;;38.57;34.50;;;7.00;99.90;;;;;;6276148;28;20572;-61
2021/01/02 12:27:12;;;;;;;29.10;24.20;;;7.00;99.90;;;;;;6275868;28;20489;-62
2021/01/02 12:30:17;;;;;;;26.33;22.57;;;7.10;99.90;;;;;;6275089;28;20474;-62
2021/01/02 12:33:20;;;;;;;31.40;25.00;;;7.30;99.90;;;;;;6275009;28;20478;-62
2021/01/02 12:36:31;;;;;;;27.97;22.93;;;7.50;99.90;;;;;;6275724;28;20470;-62
2021/01/02 12:39:35;;;;;;;22.70;20.30;;;7.70;99.90;;;;;;6275945;28;20467;-61
2021/01/02 12:42:39;;;;;;;23.43;20.10;;;7.70;99.90;;;;;;6275439;28;20481;-60
2021/01/02 12:45:42;;;;;;;24.03;18.97;;;7.70;99.90;;;;;;6272741;28;20462;-62
2021/01/02 12:48:46;;;;;;;22.77;19.30;;;7.80;99.90;;;;;;6275475;28;20561;-61
2021/01/02 12:51:48;;;;;;;23.03;19.07;;;7.80;99.90;;;;;;6275720;28;20482;-62
2021/01/02 12:54:52;;;;;;;20.80;18.10;;;7.90;99.90;;;;;;6275541;28;20474;-61
2021/01/02 12:58:00;;;;;;;23.20;18.20;;;7.90;99.90;;;;;;6275099;28;20970;-61
2021/01/02 13:01:03;;;;;;;18.03;16.13;;;8.00;99.90;;;;;;6275543;28;20970;-61
2021/01/02 13:04:06;;;;;;;18.37;14.67;;;8.00;99.90;;;;;;6275398;28;20474;-61
2021/01/02 13:07:09;;;;;;;16.13;14.50;;;8.00;99.90;;;;;;6274904;28;20470;-61
2021/01/02 13:10:12;;;;;;;16.13;14.10;;;7.90;99.90;;;;;;6275360;28;20469;-61
2021/01/02 13:13:15;;;;;;;17.63;14.47;;;7.90;99.90;;;;;;6275342;28;20466;-62
2021/01/02 13:16:18;;;;;;;17.73;15.93;;;7.80;99.90;;;;;;6274848;28;20451;-62
2021/01/02 13:19:22;;;;;;;22.20;19.20;;;7.70;99.90;;;;;;6266395;28;20443;-63
2021/01/02 13:22:27;;;;;;;20.67;18.33;;;7.50;99.90;;;;;;6275091;28;20471;-60
2021/01/02 13:25:29;;;;;;;24.63;20.73;;;7.40;99.90;;;;;;6274589;28;20539;-60
2021/01/02 13:28:31;;;;;;;24.07;19.70;;;7.30;99.90;;;;;;6271062;28;20551;-59
2021/01/02 13:31:43;;;;;;;24.63;19.50;;;7.30;99.90;;;;;;6270705;28;21146;-59
2021/01/02 13:34:46;;;;;;;26.13;21.27;;;7.30;99.90;;;;;;6271317;28;20966;-60
2021/01/02 13:37:48;;;;;;;25.70;21.10;;;7.30;99.90;;;;;;6272421;28;20474;-59
2021/01/02 13:40:51;;;;;;;28.40;20.10;;;7.30;99.90;;;;;;6273008;28;20466;-60
2021/01/02 13:43:53;;;;;;;30.83;27.50;;;7.30;99.90;;;;;;6274582;28;20466;-60
2021/01/02 13:47:00;;;;;;;34.20;28.30;;;7.30;99.90;;;;;;6255245;28;20478;-60
2021/01/02 13:50:04;;;;;;;32.63;27.10;;;7.30;99.90;;;;;;6249763;28;20898;-60
2021/01/02 13:53:06;;;;;;;33.23;27.47;;;7.20;99.90;;;;;;6258035;28;20779;-60
2021/01/02 13:56:11;;;;;;;31.70;24.57;;;7.20;99.90;;;;;;6273255;28;20477;-59
2021/01/02 13:59:15;;;;;;;31.00;24.40;;;7.10;99.90;;;;;;6274790;28;20470;-60
2021/01/02 14:02:19;;;;;;;27.97;24.50;;;7.10;99.90;;;;;;6274459;28;20478;-60
2021/01/02 14:05:22;;;;;;;31.67;27.23;;;7.00;99.90;;;;;;6274586;28;20830;-60
2021/01/02 14:08:27;;;;;;;29.10;25.23;;;6.90;99.90;;;;;;6274440;28;21005;-59
2021/01/02 14:11:30;;;;;;;33.33;26.10;;;6.90;99.90;;;;;;6274365;28;20481;-61
2021/01/02 14:14:37;;;;;;;40.20;28.10;;;6.90;99.90;;;;;;6274410;28;20493;-61
2021/01/02 14:17:40;;;;;;;33.77;28.60;;;6.80;99.90;;;;;;6274809;28;20474;-61
2021/01/02 14:20:43;;;;;;;30.37;25.67;;;6.80;99.90;;;;;;6274304;28;20519;-60
2021/01/02 14:23:45;;;;;;;31.70;26.30;;;6.80;99.90;;;;;;6270165;28;20474;-61
2021/01/02 14:26:48;;;;;;;34.70;28.53;;;6.80;99.90;;;;;;6273718;28;20476;-62
2021/01/02 14:29:50;;;;;;;31.00;26.17;;;6.80;99.90;;;;;;6277344;28;20485;-61
2021/01/02 14:32:53;;;;;;;32.03;25.77;;;6.70;99.90;;;;;;6278986;28;20475;-61
2021/01/02 14:35:56;;;;;;;29.37;26.00;;;6.70;99.90;;;;;;6279123;28;20544;-60
2021/01/02 14:39:00;;;;;;;28.77;25.87;;;6.70;99.90;;;;;;6279219;28;20494;-60
2021/01/02 14:42:05;;;;;;;36.93;26.80;;;6.60;99.90;;;;;;6278395;28;20492;-61
2021/01/02 14:45:08;;;;;;;32.50;28.80;;;6.60;99.90;;;;;;6274523;28;20471;-61
2021/01/02 14:48:11;;;;;;;34.40;26.23;;;6.60;99.90;;;;;;6254223;28;20478;-61
2021/01/02 14:51:13;;;;;;;36.87;26.50;;;6.70;99.90;;;;;;6253962;28;20490;-61
2021/01/02 14:54:17;;;;;;;37.73;28.10;;;6.70;99.90;;;;;;6271698;28;20469;-61
2021/01/02 14:57:20;;;;;;;36.40;28.97;;;6.70;99.90;;;;;;6277255;28;20488;-61
2021/01/02 15:00:23;;;;;;;36.27;29.13;;;6.60;99.90;;;;;;6276171;28;20474;-62
2021/01/02 15:03:26;;;;;;;32.47;28.93;;;6.60;99.90;;;;;;6276285;28;20484;-63
2021/01/02 15:06:28;;;;;;;37.00;29.97;;;6.60;99.90;;;;;;6278181;28;20516;-63
2021/01/02 15:09:32;;;;;;;35.60;28.80;;;6.50;99.90;;;;;;6278310;28;20476;-63
2021/01/02 15:12:35;;;;;;;37.87;28.93;;;6.50;99.90;;;;;;6277580;28;20478;-62
2021/01/02 15:15:38;;;;;;;38.77;29.50;;;6.50;99.90;;;;;;6278077;28;20466;-61
2021/01/02 15:18:41;;;;;;;36.03;30.73;;;6.40;99.90;;;;;;6277862;28;20465;-61
2021/01/02 15:21:43;;;;;;;38.83;31.40;;;6.40;99.90;;;;;;6277720;28;20470;-62
2021/01/02 15:24:45;;;;;;;38.37;32.90;;;6.30;99.90;;;;;;6278209;28;20905;-63
2021/01/02 15:27:47;;;;;;;43.03;31.93;;;6.20;99.90;;;;;;6277743;28;20492;-63
2021/01/02 15:30:50;;;;;;;40.73;31.00;;;6.00;99.90;;;;;;6272937;28;20496;-61
2021/01/02 15:33:54;;;;;;;39.73;31.90;;;6.10;99.90;;;;;;6277747;28;20480;-61
2021/01/02 15:36:58;;;;;;;35.67;31.97;;;6.00;99.90;;;;;;6277504;28;20942;-61
2021/01/02 15:40:00;;;;;;;38.60;28.90;;;6.00;99.90;;;;;;6277152;28;20559;-61
2021/01/02 15:43:02;;;;;;;34.53;28.53;;;6.00;99.90;;;;;;6277309;28;20972;-62
2021/01/02 15:46:09;;;;;;;29.10;25.63;;;6.00;99.90;;;;;;6265188;28;21058;-61
2021/01/02 15:49:13;;;;;;;40.80;33.77;;;6.00;99.90;;;;;;6252560;28;20455;-61
2021/01/02 15:52:20;;;;;;;37.57;28.93;;;5.90;99.90;;;;;;6253706;28;20483;-61
2021/01/02 15:55:22;;;;;;;38.53;30.50;;;5.80;99.90;;;;;;6276811;28;20779;-61
2021/01/02 15:58:24;;;;;;;39.50;28.40;;;5.80;99.90;;;;;;6277589;28;20447;-61
2021/01/02 16:01:26;;;;;;;33.00;27.47;;;5.90;99.90;;;;;;6277137;28;20466;-62